Latest Weather Observations for Pirlangimpi

IDD60901

Issued at 5:11 pm CST Tuesday 17 October 2017 (issued every 10 minutes, with the page automatically refreshed every 10 minutes)

About weather observations | Map of Darwin area stations | Latest observations for Darwin area | Other Formats
Station Details ID: 014142 Name: PIRLANGIMPI AIRPORT Lat: -11.40 Lon: 130.42 Height: 18.3 m
Data from the previous 72 hours. | See also: Recent months at Pirlangimpi
Date/Time
CST
Temp
°C
App
Temp
°C
Dew
Point
°C
Rel
Hum
%
Delta-T
°C
Wind Press
QNH
hPa
Press
MSL
hPa
Rain since
9am
mm
Dir  Spd
km/h
Gust
km/h
Spd
kts
Gust
kts
17/05:00pm 29.9 33.8 22.9 66 4.8 SSW 7 9 4 5 1004.4 1004.3 14.0
17/04:30pm 28.8 32.1 21.8 66 4.7 SSW 7 9 4 5 1004.8 1004.7 14.0
17/04:00pm 29.2 32.6 20.9 61 5.5 WSW 4 9 2 5 1005.3 1005.2 14.0
17/03:30pm 28.0 31.1 21.5 67 4.4 WSW 7 15 4 8 1006.2 1006.1 14.0
17/03:00pm 25.9 29.1 21.6 77 2.9 WNW 7 15 4 8 1006.7 1006.6 14.0
17/02:30pm 25.3 28.0 21.4 79 2.6 NW 9 19 5 10 1007.0 1006.9 14.0
17/02:00pm 24.4 26.9 21.1 82 2.2 NNW 9 17 5 9 1006.9 1006.8 14.0
17/01:30pm 23.0 25.5 21.1 89 1.2 NNW 9 15 5 8 1007.6 1007.5 14.0
17/01:00pm 24.1 27.2 21.4 85 1.8 E 7 17 4 9 1009.5 1009.4 7.6
17/12:30pm 26.7 30.9 23.4 82 2.3 W 7 17 4 9 1008.7 1008.6 3.6
17/12:00pm 28.6 32.6 23.7 75 3.4 WNW 9 19 5 10 1008.2 1008.1 0.2
17/11:30am 32.5 35.9 23.4 58 6.3 N 11 19 6 10 1008.5 1008.4 0.0
17/11:00am 33.2 37.0 23.5 56 6.7 NW 9 17 5 9 1009.1 1009.0 0.0
17/10:30am 31.4 34.5 22.1 57 6.3 NNW 9 19 5 10 1009.3 1009.2 0.0
17/10:00am 32.6 37.4 24.4 62 5.8 NW 7 15 4 8 1009.5 1009.4 0.0
17/09:30am 30.9 35.1 23.5 64 5.1 WSW 7 13 4 7 1009.4 1009.3 0.0
17/09:00am 30.9 35.8 24.3 68 4.6 WSW 6 9 3 5 1009.2 1009.1 0.0
17/08:30am 30.0 35.5 24.6 73 3.8 WSW 4 7 2 4 1009.2 1009.1 0.0
17/08:00am 29.6 35.4 25.1 77 3.2 W 4 7 2 4 1008.7 1008.6 0.0
17/07:30am 28.8 35.0 25.2 81 2.5 NW 2 6 1 3 1008.1 1008.0 0.0
17/07:00am 27.6 34.1 25.0 86 1.8 CALM 0 0 0 0 1007.7 1007.6 0.0
17/06:30am 27.5 33.8 24.7 85 2.0 CALM 0 0 0 0 1007.5 1007.4 0.0
17/06:00am 27.9 33.9 24.9 84 2.1 W 2 7 1 4 1007.1 1007.0 0.0
17/05:30am 28.1 33.7 24.9 83 2.2 WNW 4 7 2 4 1006.7 1006.6 0.0
17/05:00am 28.2 33.8 24.8 82 2.4 WNW 4 9 2 5 1006.4 1006.3 0.0
17/04:30am 28.4 34.0 24.8 81 2.5 NW 4 9 2 5 1006.1 1006.0 0.0
17/04:00am 28.5 33.8 24.9 81 2.5 NW 6 11 3 6 1005.9 1005.8 0.0
17/03:30am 28.5 33.8 24.9 81 2.5 NW 6 9 3 5 1005.8 1005.7 0.0
17/03:00am 28.7 33.4 24.9 80 2.7 NW 9 22 5 12 1005.6 1005.5 0.0
17/02:30am 28.7 33.4 24.9 80 2.7 NW 9 20 5 11 1005.8 1005.7 0.0
17/02:00am 28.5 33.6 24.9 81 2.5 NW 7 15 4 8 1006.1 1006.0 0.0
17/01:30am 28.5 33.7 25.1 82 2.4 NW 7 15 4 8 1006.3 1006.2 0.0
17/01:00am 28.5 33.8 24.9 81 2.5 NW 6 15 3 8 1006.8 1006.7 0.0
17/12:30am 28.5 33.9 25.1 82 2.4 NW 6 13 3 7 1007.2 1007.1 0.0
17/12:00am 28.5 34.3 25.1 82 2.4 NW 4 13 2 7 1007.3 1007.2 0.0
 
Date/Time
CST
Temp
°C
App
Temp
°C
Dew
Point
°C
Rel
Hum
%
Delta-T
°C
Wind Press
QNH
hPa
Press
MSL
hPa
Rain since
9am
mm
Dir  Spd
km/h
Gust
km/h
Spd
kts
Gust
kts
16/11:30pm 28.6 34.0 25.2 82 2.4 NW 6 13 3 7 1007.4 1007.3 0.0
16/11:00pm 28.5 34.0 25.3 83 2.3 NW 6 13 3 7 1007.4 1007.3 0.0
16/10:30pm 28.6 34.0 25.2 82 2.4 WNW 6 11 3 6 1007.6 1007.5 0.0
16/10:00pm 28.6 34.2 25.4 83 2.3 NW 6 9 3 5 1007.5 1007.4 0.0
16/09:30pm 28.7 34.6 25.3 82 2.4 NW 4 7 2 4 1007.5 1007.4 0.0
16/09:00pm 28.9 34.8 25.3 81 2.5 NW 4 9 2 5 1007.3 1007.2 0.0
16/08:30pm 29.1 34.9 25.1 79 2.8 NW 4 9 2 5 1007.0 1006.9 0.0
16/08:00pm 29.3 34.5 24.8 77 3.2 NW 6 9 3 5 1006.6 1006.5 0.0
16/07:30pm 29.6 35.1 24.7 75 3.4 WNW 4 9 2 5 1006.6 1006.5 0.0
16/07:00pm 29.9 34.7 24.1 71 4.0 WNW 6 13 3 7 1006.1 1006.0 0.0
16/06:30pm 30.7 35.5 24.1 68 4.6 WNW 6 9 3 5 1005.5 1005.4 0.0
16/06:00pm 31.9 36.8 23.7 62 5.7 NNW 4 11 2 6 1005.0 1004.9 0.0
16/05:30pm 33.1 36.6 21.9 51 7.6 NE 6 11 3 6 1004.9 1004.8 0.0
16/05:00pm 33.8 38.4 23.8 56 7.0 NW 6 9 3 5 1005.2 1005.1 0.0
16/04:30pm 33.9 38.5 24.2 57 6.8 NW 7 15 4 8 1005.1 1005.0 0.0
16/04:00pm 33.8 37.5 23.2 54 7.3 NW 9 15 5 8 1005.0 1004.9 0.0
16/03:30pm 33.2 37.0 21.7 51 7.8 NE 4 7 2 4 1005.2 1005.1 0.0
16/03:00pm 32.1 36.0 22.5 57 6.6 WNW 6 11 3 6 1005.6 1005.5 0.0
16/02:30pm 30.0 30.7 19.7 54 6.8 SW 15 32 8 17 1005.5 1005.4 0.0
16/02:20pm 30.5 29.3 19.2 51 7.4 SW 24 35 13 19 1005.3 1005.2 0.0
16/02:00pm 35.8 39.2 22.0 44 9.5 WNW 7 13 4 7 1005.6 1005.5 0.0
16/01:30pm 34.8 38.5 22.5 48 8.5 WNW 7 11 4 6 1005.9 1005.8 0.0
16/01:00pm 35.4 39.5 23.0 48 8.6 WNW 6 11 3 6 1006.4 1006.3 0.0
16/12:30pm 34.0 37.5 21.8 49 8.3 W 6 11 3 6 1006.9 1006.8 0.0
16/12:00pm 33.9 38.2 23.3 54 7.4 W 6 9 3 5 1007.2 1007.1 0.0
16/11:30am 33.4 37.6 22.5 52 7.5 WSW 4 6 2 3 1007.7 1007.6 0.0
16/11:00am 33.3 37.8 23.6 56 6.7 WNW 6 13 3 7 1008.3 1008.2 0.0
16/10:30am 31.9 36.0 22.9 59 6.2 WNW 6 9 3 5 1008.8 1008.7 0.0
16/10:00am 32.0 37.5 24.6 65 5.2 NW 4 7 2 4 1008.8 1008.7 0.0
16/09:30am 31.3 36.8 24.7 68 4.6 WSW 4 7 2 4 1009.2 1009.1 0.0
16/09:00am 30.1 34.7 23.8 69 4.4 SSW 6 9 3 5 1009.2 1009.1 1.2
16/08:30am 29.2 35.0 24.5 76 3.3 S 2 6 1 3 1009.4 1009.3 1.2
16/08:00am 27.8 32.6 24.4 82 2.4 SSE 7 15 4 8 1009.8 1009.7 1.2
16/07:30am 26.7 31.5 24.5 88 1.5 SE 7 11 4 6 1009.7 1009.6 1.2
16/07:00am 26.6 32.1 24.6 89 1.4 SSE 4 7 2 4 1009.3 1009.2 1.2
16/06:30am 26.1 31.5 24.5 91 1.1 SSE 4 6 2 3 1008.9 1008.8 1.2
16/06:00am 25.9 31.4 24.1 90 1.2 S 2 2 1 1 1008.3 1008.2 1.2
16/05:30am 25.9 31.3 23.9 89 1.4 WSW 2 2 1 1 1007.7 1007.6 1.2
16/05:00am 26.2 32.1 24.1 88 1.4 CALM 0 0 0 0 1007.3 1007.2 1.2
16/04:30am 26.7 31.9 24.2 86 1.7 W 4 6 2 3 1007.0 1006.9 1.2
16/04:00am 26.6 32.2 24.3 87 1.6 WNW 2 7 1 4 1006.8 1006.7 1.2
16/03:30am 26.5 31.9 24.5 89 1.4 W 4 7 2 4 1006.7 1006.6 1.2
16/03:00am 25.3 30.9 24.3 94 0.7 WNW 2 6 1 3 1007.0 1006.9 1.2
16/02:30am 24.9 30.6 23.7 93 0.8 CALM 0 0 0 0 1007.3 1007.2 1.2
16/02:00am 24.8 30.3 23.4 92 1.0 CALM 0 0 0 0 1007.5 1007.4 1.2
16/01:30am 25.0 30.6 23.6 92 1.0 CALM 0 0 0 0 1008.1 1008.0 1.2
16/01:00am 25.3 30.1 23.5 90 1.2 SE 4 6 2 3 1008.8 1008.7 1.2
16/12:30am 25.2 30.8 23.6 91 1.1 CALM 0 0 0 0 1008.8 1008.7 1.2
16/12:00am 25.2 30.9 23.8 92 1.0 CALM 0 0 0 0 1009.1 1009.0 1.2
 
Date/Time
CST
Temp
°C
App
Temp
°C
Dew
Point
°C
Rel
Hum
%
Delta-T
°C
Wind Press
QNH
hPa
Press
MSL
hPa
Rain since
9am
mm
Dir  Spd
km/h
Gust
km/h
Spd
kts
Gust
kts
15/11:30pm 25.3 31.0 23.7 91 1.1 CALM 0 0 0 0 1009.0 1008.9 1.2
15/11:00pm 25.2 30.7 23.4 90 1.2 CALM 0 0 0 0 1008.8 1008.7 1.0
15/10:30pm 25.6 31.2 23.5 88 1.4 CALM 0 0 0 0 1009.1 1009.0 1.0
15/10:00pm 25.8 30.8 23.8 89 1.4 SSE 4 6 2 3 1009.1 1009.0 1.0
15/09:30pm 25.9 31.8 24.1 90 1.2 CALM 0 0 0 0 1008.2 1008.1 1.0
15/09:00pm 26.2 32.3 24.4 90 1.2 CALM 0 0 0 0 1008.0 1007.9 1.0
15/08:30pm 26.0 32.1 24.4 91 1.1 CALM 0 0 0 0 1007.3 1007.2 1.0
15/08:00pm 25.7 31.5 23.9 90 1.2 CALM 0 0 0 0 1007.0 1006.9 1.0
15/07:30pm 25.8 31.2 23.8 89 1.4 SSE 2 4 1 2 1006.8 1006.7 1.0
15/07:00pm 25.9 31.7 23.9 89 1.4 CALM 0 0 0 0 1006.5 1006.4 1.0
15/06:30pm 25.9 30.5 23.8 88 1.4 S 6 7 3 4 1006.4 1006.3 1.0
15/06:00pm 26.9 31.6 24.0 84 2.0 S 6 9 3 5 1006.5 1006.4 0.0
15/05:30pm 28.5 32.4 23.0 72 3.8 SSW 7 13 4 7 1006.0 1005.9 0.0
15/05:00pm 29.1 31.6 21.8 64 4.9 S 11 19 6 10 1005.9 1005.8 0.0
15/04:30pm 32.5 36.3 23.4 58 6.3 NW 9 19 5 10 1005.7 1005.6 0.0
15/04:00pm 32.5 35.3 23.7 59 6.1 NNW 15 28 8 15 1005.5 1005.4 0.0
15/03:30pm 32.9 35.6 23.5 57 6.5 NW 15 24 8 13 1005.4 1005.3 0.0
15/03:00pm 33.3 37.0 24.5 60 6.2 NW 13 26 7 14 1005.6 1005.5 0.0
15/02:30pm 33.6 36.7 24.2 58 6.6 NNW 15 22 8 12 1005.8 1005.7 0.0
15/02:00pm 33.8 37.6 24.1 57 6.8 NW 11 22 6 12 1006.2 1006.1 0.0
15/01:30pm 34.2 39.0 24.2 56 7.0 WNW 6 15 3 8 1006.4 1006.3 0.0
15/01:00pm 33.9 38.2 23.6 55 7.2 WSW 7 13 4 7 1006.9 1006.8 0.0
15/12:30pm 32.4 36.9 23.6 59 6.1 WSW 6 9 3 5 1007.3 1007.2 0.0
15/12:00pm 32.9 37.3 23.8 58 6.4 WNW 7 13 4 7 1007.6 1007.5 0.0
15/11:30am 32.7 37.3 24.2 61 6.0 W 7 13 4 7 1007.9 1007.8 0.0
15/11:00am 31.2 35.8 24.1 66 4.9 W 7 13 4 7 1008.2 1008.1 0.0
15/10:30am 30.5 34.9 23.4 66 4.9 WNW 6 9 3 5 1008.4 1008.3 0.0
15/10:00am 30.2 35.2 23.9 69 4.4 WNW 4 6 2 3 1008.6 1008.5 0.0
15/09:30am 29.5 34.4 23.7 71 4.0 WSW 4 7 2 4 1008.8 1008.7 0.0
15/09:00am 30.1 35.4 24.3 71 4.0 W 4 9 2 5 1008.7 1008.6 0.0
15/08:30am 28.6 34.3 23.7 75 3.4 CALM 0 2 0 1 1008.9 1008.8 0.0
15/08:00am 27.6 33.7 24.4 83 2.2 CALM 0 0 0 0 1008.9 1008.8 0.0
15/07:30am 25.8 31.8 24.2 91 1.1 CALM 0 2 0 1 1008.6 1008.5 0.0
15/07:00am 24.6 30.1 23.4 93 0.8 CALM 0 0 0 0 1008.0 1007.9 0.0
15/06:30am 24.3 29.6 23.1 93 0.8 CALM 0 0 0 0 1007.8 1007.7 0.0
15/06:00am 24.4 29.7 23.0 92 0.9 CALM 0 2 0 1 1007.6 1007.5 0.0
15/05:30am 24.4 29.7 23.0 92 0.9 CALM 0 0 0 0 1007.4 1007.3 0.0
15/05:00am 24.6 30.0 23.2 92 0.9 CALM 0 0 0 0 1007.0 1006.9 0.0
15/04:30am 24.5 29.9 23.3 93 0.8 CALM 0 0 0 0 1006.9 1006.8 0.0
15/04:00am 24.5 29.8 23.1 92 0.9 CALM 0 0 0 0 1007.0 1006.9 0.0
15/03:30am 24.7 30.0 23.1 91 1.1 CALM 0 0 0 0 1006.9 1006.8 0.0
15/03:00am 24.8 30.2 23.2 91 1.1 CALM 0 0 0 0 1007.1 1007.0 0.0
15/02:30am 24.8 30.2 23.2 91 1.1 CALM 0 0 0 0 1007.3 1007.2 0.0
15/02:00am 24.9 30.3 23.3 91 1.1 CALM 0 0 0 0 1007.4 1007.3 0.0
15/01:30am 24.9 30.3 23.3 91 1.1 CALM 0 0 0 0 1007.7 1007.6 0.0
15/01:00am 25.1 30.5 23.3 90 1.2 CALM 0 0 0 0 1007.9 1007.8 0.0
15/12:30am 25.1 30.5 23.3 90 1.2 CALM 0 0 0 0 1008.0 1007.9 0.0
15/12:00am 25.3 30.8 23.4 89 1.3 CALM 0 0 0 0 1008.1 1008.0 0.0
 
Date/Time
CST
Temp
°C
App
Temp
°C
Dew
Point
°C
Rel
Hum
%
Delta-T
°C
Wind Press
QNH
hPa
Press
MSL
hPa
Rain since
9am
mm
Dir  Spd
km/h
Gust
km/h
Spd
kts
Gust
kts
14/11:30pm 25.3 30.7 23.2 88 1.4 CALM 0 0 0 0 1008.6 1008.5 0.0
14/11:00pm 25.5 30.9 23.2 87 1.6 CALM 0 0 0 0 1008.6 1008.5 0.0
14/10:30pm 25.7 31.1 23.2 86 1.7 CALM 0 0 0 0 1008.7 1008.6 0.0
14/10:00pm 26.0 31.3 23.1 84 2.0 CALM 0 0 0 0 1008.4 1008.3 0.0
14/09:30pm 26.1 31.4 23.0 83 2.1 CALM 0 0 0 0 1008.0 1007.9 0.0
14/09:00pm 26.3 31.6 23.0 82 2.2 CALM 0 0 0 0 1007.7 1007.6 0.0
14/08:30pm 26.9 32.1 22.9 79 2.7 CALM 0 0 0 0 1007.5 1007.4 0.0
14/08:00pm 27.5 32.0 22.9 76 3.1 NNE 4 6 2 3 1006.9 1006.8 0.0
14/07:30pm 27.9 32.3 22.8 74 3.5 N 4 7 2 4 1006.7 1006.6 0.0
14/07:00pm 28.4 32.6 23.1 73 3.6 NNE 6 11 3 6 1006.5 1006.4 0.0
14/06:30pm 29.0 32.9 23.0 70 4.1 NE 7 13 4 7 1006.3 1006.2 0.0
14/06:00pm 29.5 33.7 23.2 69 4.3 NNE 6 13 3 7 1006.1 1006.0 0.0
14/05:30pm 30.5 35.4 23.7 67 4.7 NNE 4 11 2 6 1005.8 1005.7 0.0

Latest Capital City Observations: Canberra | Sydney | Melbourne | Brisbane | Adelaide | Perth | Hobart | Darwin

Other Formats:

Comma delimited format used in spreadsheet applications
http://www.bom.gov.au/fwo/IDD60901/IDD60901.94119.axf

JavaScript Object Notation format (JSON) in row-major order
http://www.bom.gov.au/fwo/IDD60901/IDD60901.94119.json